sensor_id;sensor_type;location;lat;lon;timestamp;pressure;altitude;pressure_sealevel;temperature
29701;BMP280;57917;51.380;-0.176;2022-12-07T00:01:03;102045.91;;;5.51
29701;BMP280;57917;51.380;-0.176;2022-12-07T00:06:52;102045.06;;;5.64
29701;BMP280;57917;51.380;-0.176;2022-12-07T00:12:49;102037.41;;;5.42
29701;BMP280;57917;51.380;-0.176;2022-12-07T00:18:43;102030.56;;;5.02
29701;BMP280;57917;51.380;-0.176;2022-12-07T00:24:30;102035.59;;;5.30
29701;BMP280;57917;51.380;-0.176;2022-12-07T00:30:17;102042.09;;;5.21
29701;BMP280;57917;51.380;-0.176;2022-12-07T00:36:09;102041.66;;;5.17
29701;BMP280;57917;51.380;-0.176;2022-12-07T00:41:57;102027.91;;;5.15
29701;BMP280;57917;51.380;-0.176;2022-12-07T00:47:48;102031.31;;;5.62
29701;BMP280;57917;51.380;-0.176;2022-12-07T00:53:38;102022.25;;;5.64
29701;BMP280;57917;51.380;-0.176;2022-12-07T00:59:27;102015.34;;;5.63
29701;BMP280;57917;51.380;-0.176;2022-12-07T01:05:14;102016.41;;;5.23
29701;BMP280;57917;51.380;-0.176;2022-12-07T01:11:07;102010.13;;;5.24
29701;BMP280;57917;51.380;-0.176;2022-12-07T01:16:56;102012.38;;;5.07
29701;BMP280;57917;51.380;-0.176;2022-12-07T01:22:43;102008.31;;;4.98
29701;BMP280;57917;51.380;-0.176;2022-12-07T01:28:31;102008.50;;;4.90
29701;BMP280;57917;51.380;-0.176;2022-12-07T01:34:17;102019.44;;;4.94
29701;BMP280;57917;51.380;-0.176;2022-12-07T01:40:06;102023.81;;;4.67
29701;BMP280;57917;51.380;-0.176;2022-12-07T01:45:56;102023.03;;;4.67
29701;BMP280;57917;51.380;-0.176;2022-12-07T01:51:43;102015.31;;;4.52
29701;BMP280;57917;51.380;-0.176;2022-12-07T01:57:34;102025.00;;;4.71
29701;BMP280;57917;51.380;-0.176;2022-12-07T02:03:40;102020.22;;;4.94
29701;BMP280;57917;51.380;-0.176;2022-12-07T02:09:27;102012.34;;;4.94
29701;BMP280;57917;51.380;-0.176;2022-12-07T02:15:13;102005.69;;;5.11
29701;BMP280;57917;51.380;-0.176;2022-12-07T02:21:08;102008.13;;;4.93
29701;BMP280;57917;51.380;-0.176;2022-12-07T02:33:24;101996.00;;;4.79
29701;BMP280;57917;51.380;-0.176;2022-12-07T02:39:53;101993.56;;;4.91
29701;BMP280;57917;51.380;-0.176;2022-12-07T02:45:41;101988.13;;;5.05
29701;BMP280;57917;51.380;-0.176;2022-12-07T02:51:31;101992.81;;;5.16
29701;BMP280;57917;51.380;-0.176;2022-12-07T02:57:32;101996.41;;;5.09
29701;BMP280;57917;51.380;-0.176;2022-12-07T03:03:22;101973.59;;;5.09
29701;BMP280;57917;51.380;-0.176;2022-12-07T03:22:02;101978.66;;;4.98
29701;BMP280;57917;51.380;-0.176;2022-12-07T03:27:54;101979.84;;;4.82
29701;BMP280;57917;51.380;-0.176;2022-12-07T03:33:46;101965.34;;;4.86
29701;BMP280;57917;51.380;-0.176;2022-12-07T03:39:46;101972.56;;;4.71
29701;BMP280;57917;51.380;-0.176;2022-12-07T03:45:43;101970.16;;;4.76
29701;BMP280;57917;51.380;-0.176;2022-12-07T03:51:54;101965.31;;;4.60
29701;BMP280;57917;51.380;-0.176;2022-12-07T03:57:44;101964.84;;;4.37
29701;BMP280;57917;51.380;-0.176;2022-12-07T04:03:32;101960.22;;;4.39
29701;BMP280;57917;51.380;-0.176;2022-12-07T04:09:19;101955.41;;;4.49
29701;BMP280;57917;51.380;-0.176;2022-12-07T04:15:07;101965.91;;;4.62
29701;BMP280;57917;51.380;-0.176;2022-12-07T04:20:54;101949.19;;;4.83
29701;BMP280;57917;51.380;-0.176;2022-12-07T04:26:41;101955.41;;;4.88
29701;BMP280;57917;51.380;-0.176;2022-12-07T04:32:28;101960.69;;;5.01
29701;BMP280;57917;51.380;-0.176;2022-12-07T04:38:15;101962.09;;;4.84
29701;BMP280;57917;51.380;-0.176;2022-12-07T04:44:03;101963.13;;;4.90
29701;BMP280;57917;51.380;-0.176;2022-12-07T04:49:53;101962.50;;;4.68
29701;BMP280;57917;51.380;-0.176;2022-12-07T04:55:40;101970.16;;;4.50
29701;BMP280;57917;51.380;-0.176;2022-12-07T05:01:26;101973.72;;;4.42
29701;BMP280;57917;51.380;-0.176;2022-12-07T05:07:13;101972.13;;;4.41
29701;BMP280;57917;51.380;-0.176;2022-12-07T05:13:00;101963.81;;;4.38
29701;BMP280;57917;51.380;-0.176;2022-12-07T05:18:47;101976.81;;;4.72
29701;BMP280;57917;51.380;-0.176;2022-12-07T05:24:34;101963.94;;;5.03
29701;BMP280;57917;51.380;-0.176;2022-12-07T05:30:20;101953.22;;;4.98
29701;BMP280;57917;51.380;-0.176;2022-12-07T05:36:07;101951.16;;;4.61
29701;BMP280;57917;51.380;-0.176;2022-12-07T05:41:54;101951.94;;;4.42
29701;BMP280;57917;51.380;-0.176;2022-12-07T05:47:59;101945.72;;;4.50
29701;BMP280;57917;51.380;-0.176;2022-12-07T05:53:46;101944.94;;;4.62
29701;BMP280;57917;51.380;-0.176;2022-12-07T05:59:32;101944.72;;;4.64
29701;BMP280;57917;51.380;-0.176;2022-12-07T06:05:19;101942.75;;;4.85
29701;BMP280;57917;51.380;-0.176;2022-12-07T06:11:06;101931.22;;;4.80
29701;BMP280;57917;51.380;-0.176;2022-12-07T06:17:12;101939.06;;;4.47
29701;BMP280;57917;51.380;-0.176;2022-12-07T06:22:59;101939.25;;;4.46
29701;BMP280;57917;51.380;-0.176;2022-12-07T06:28:45;101934.16;;;4.24
29701;BMP280;57917;51.380;-0.176;2022-12-07T06:34:32;101944.06;;;4.42
29701;BMP280;57917;51.380;-0.176;2022-12-07T06:40:19;101947.94;;;4.46
29701;BMP280;57917;51.380;-0.176;2022-12-07T06:46:06;101947.53;;;4.56
29701;BMP280;57917;51.380;-0.176;2022-12-07T06:51:53;101946.38;;;4.65
29701;BMP280;57917;51.380;-0.176;2022-12-07T06:57:40;101939.88;;;4.67
29701;BMP280;57917;51.380;-0.176;2022-12-07T07:03:27;101945.94;;;4.74
29701;BMP280;57917;51.380;-0.176;2022-12-07T07:09:14;101959.66;;;4.63
29701;BMP280;57917;51.380;-0.176;2022-12-07T07:15:01;101962.88;;;4.65
29701;BMP280;57917;51.380;-0.176;2022-12-07T07:20:47;101969.97;;;4.97
29701;BMP280;57917;51.380;-0.176;2022-12-07T07:26:34;101980.25;;;4.86
29701;BMP280;57917;51.380;-0.176;2022-12-07T07:32:21;101969.56;;;4.68
29701;BMP280;57917;51.380;-0.176;2022-12-07T07:38:08;101969.75;;;4.66
29701;BMP280;57917;51.380;-0.176;2022-12-07T07:43:55;101956.00;;;4.51
29701;BMP280;57917;51.380;-0.176;2022-12-07T07:49:42;101966.28;;;4.59
29701;BMP280;57917;51.380;-0.176;2022-12-07T07:55:52;101952.97;;;4.54
29701;BMP280;57917;51.380;-0.176;2022-12-07T08:01:39;101958.22;;;4.48
29701;BMP280;57917;51.380;-0.176;2022-12-07T08:07:27;101970.44;;;4.21
29701;BMP280;57917;51.380;-0.176;2022-12-07T08:13:17;101969.88;;;4.38
29701;BMP280;57917;51.380;-0.176;2022-12-07T08:19:09;101966.66;;;4.36
29701;BMP280;57917;51.380;-0.176;2022-12-07T08:24:57;101952.75;;;4.29
29701;BMP280;57917;51.380;-0.176;2022-12-07T08:30:47;101965.16;;;4.08
29701;BMP280;57917;51.380;-0.176;2022-12-07T08:36:36;101966.41;;;4.18
29701;BMP280;57917;51.380;-0.176;2022-12-07T08:42:23;101962.25;;;4.43
29701;BMP280;57917;51.380;-0.176;2022-12-07T08:48:14;101945.84;;;4.22
29701;BMP280;57917;51.380;-0.176;2022-12-07T08:54:06;101941.69;;;3.93
29701;BMP280;57917;51.380;-0.176;2022-12-07T08:59:54;101931.63;;;3.90
29701;BMP280;57917;51.380;-0.176;2022-12-07T09:05:41;101927.97;;;3.85
29701;BMP280;57917;51.380;-0.176;2022-12-07T09:11:28;101935.88;;;3.98
29701;BMP280;57917;51.380;-0.176;2022-12-07T09:17:15;101934.44;;;3.89
29701;BMP280;57917;51.380;-0.176;2022-12-07T09:23:01;101942.69;;;3.92
29701;BMP280;57917;51.380;-0.176;2022-12-07T09:28:48;101936.34;;;4.14
29701;BMP280;57917;51.380;-0.176;2022-12-07T09:34:35;101943.44;;;4.20
29701;BMP280;57917;51.380;-0.176;2022-12-07T09:40:22;101933.75;;;4.21
29701;BMP280;57917;51.380;-0.176;2022-12-07T09:46:13;101933.59;;;4.42
29701;BMP280;57917;51.380;-0.176;2022-12-07T09:57:55;101934.66;;;5.00
29701;BMP280;57917;51.380;-0.176;2022-12-07T10:03:49;101916.69;;;5.16
29701;BMP280;57917;51.380;-0.176;2022-12-07T10:09:36;101925.53;;;5.28
29701;BMP280;57917;51.380;-0.176;2022-12-07T10:15:41;101920.28;;;5.28
29701;BMP280;57917;51.380;-0.176;2022-12-07T10:21:31;101903.94;;;5.13
29701;BMP280;57917;51.380;-0.176;2022-12-07T10:27:26;101903.56;;;4.97
29701;BMP280;57917;51.380;-0.176;2022-12-07T10:33:36;101894.25;;;5.14
29701;BMP280;57917;51.380;-0.176;2022-12-07T10:39:23;101872.81;;;5.36
29701;BMP280;57917;51.380;-0.176;2022-12-07T10:45:17;101856.47;;;5.21
29701;BMP280;57917;51.380;-0.176;2022-12-07T10:51:14;101844.13;;;5.35
29701;BMP280;57917;51.380;-0.176;2022-12-07T10:57:27;101845.13;;;5.27
29701;BMP280;57917;51.380;-0.176;2022-12-07T11:03:23;101846.66;;;5.04
29701;BMP280;57917;51.380;-0.176;2022-12-07T11:22:05;101834.34;;;5.04
29701;BMP280;57917;51.380;-0.176;2022-12-07T11:28:23;101821.13;;;5.24
29701;BMP280;57917;51.380;-0.176;2022-12-07T11:34:24;101813.78;;;5.39
29701;BMP280;57917;51.380;-0.176;2022-12-07T11:40:33;101800.75;;;5.64
29701;BMP280;57917;51.380;-0.176;2022-12-07T11:46:29;101799.47;;;5.79
29701;BMP280;57917;51.380;-0.176;2022-12-07T11:52:30;101793.34;;;5.85
29701;BMP280;57917;51.380;-0.176;2022-12-07T12:04:31;101791.78;;;5.78
29701;BMP280;57917;51.380;-0.176;2022-12-07T12:23:23;101751.00;;;5.69
29701;BMP280;57917;51.380;-0.176;2022-12-07T12:29:00;101749.59;;;5.35
29701;BMP280;57917;51.380;-0.176;2022-12-07T12:40:40;101722.16;;;5.87
29701;BMP280;57917;51.380;-0.176;2022-12-07T12:46:37;101729.31;;;5.80
29701;BMP280;57917;51.380;-0.176;2022-12-07T13:10:42;101691.81;;;5.91
29701;BMP280;57917;51.380;-0.176;2022-12-07T13:16:38;101683.31;;;5.95
29701;BMP280;57917;51.380;-0.176;2022-12-07T13:28:19;101671.97;;;6.13
29701;BMP280;57917;51.380;-0.176;2022-12-07T13:34:36;101659.53;;;6.44
29701;BMP280;57917;51.380;-0.176;2022-12-07T13:40:27;101651.72;;;6.20
29701;BMP280;57917;51.380;-0.176;2022-12-07T13:46:14;101633.31;;;6.20
29701;BMP280;57917;51.380;-0.176;2022-12-07T13:52:19;101631.97;;;5.93
29701;BMP280;57917;51.380;-0.176;2022-12-07T13:58:08;101620.28;;;5.89
29701;BMP280;57917;51.380;-0.176;2022-12-07T14:03:55;101609.84;;;5.82
29701;BMP280;57917;51.380;-0.176;2022-12-07T14:09:53;101610.34;;;5.91
29701;BMP280;57917;51.380;-0.176;2022-12-07T14:15:40;101602.75;;;6.01
29701;BMP280;57917;51.380;-0.176;2022-12-07T14:21:29;101601.53;;;5.85
29701;BMP280;57917;51.380;-0.176;2022-12-07T14:27:22;101594.28;;;5.99
29701;BMP280;57917;51.380;-0.176;2022-12-07T14:33:12;101593.06;;;6.01
29701;BMP280;57917;51.380;-0.176;2022-12-07T14:39:01;101576.25;;;5.84
29701;BMP280;57917;51.380;-0.176;2022-12-07T14:44:50;101572.09;;;5.77
29701;BMP280;57917;51.380;-0.176;2022-12-07T14:50:41;101572.25;;;5.82
29701;BMP280;57917;51.380;-0.176;2022-12-07T14:56:50;101577.78;;;5.74
29701;BMP280;57917;51.380;-0.176;2022-12-07T15:02:38;101568.41;;;5.60
29701;BMP280;57917;51.380;-0.176;2022-12-07T15:08:25;101570.19;;;5.66
29701;BMP280;57917;51.380;-0.176;2022-12-07T15:14:12;101577.19;;;5.72
29701;BMP280;57917;51.380;-0.176;2022-12-07T15:19:59;101558.88;;;5.40
29701;BMP280;57917;51.380;-0.176;2022-12-07T15:25:48;101547.47;;;5.28
29701;BMP280;57917;51.380;-0.176;2022-12-07T15:31:35;101549.69;;;5.31
29701;BMP280;57917;51.380;-0.176;2022-12-07T15:37:41;101555.16;;;5.23
29701;BMP280;57917;51.380;-0.176;2022-12-07T15:43:27;101554.53;;;5.03
29701;BMP280;57917;51.380;-0.176;2022-12-07T15:49:37;101557.88;;;4.86
29701;BMP280;57917;51.380;-0.176;2022-12-07T15:55:24;101557.09;;;4.85
29701;BMP280;57917;51.380;-0.176;2022-12-07T16:01:18;101554.47;;;4.85
29701;BMP280;57917;51.380;-0.176;2022-12-07T16:07:05;101553.28;;;4.81
29701;BMP280;57917;51.380;-0.176;2022-12-07T16:12:52;101561.09;;;4.50
29701;BMP280;57917;51.380;-0.176;2022-12-07T16:18:41;101561.84;;;4.57
29701;BMP280;57917;51.380;-0.176;2022-12-07T16:24:28;101561.53;;;4.34
29701;BMP280;57917;51.380;-0.176;2022-12-07T16:30:15;101556.38;;;4.14
29701;BMP280;57917;51.380;-0.176;2022-12-07T16:36:08;101562.38;;;4.28
29701;BMP280;57917;51.380;-0.176;2022-12-07T16:49:02;101571.09;;;4.09
29701;BMP280;57917;51.380;-0.176;2022-12-07T16:54:48;101551.19;;;3.82
29701;BMP280;57917;51.380;-0.176;2022-12-07T17:00:38;101544.56;;;3.73
29701;BMP280;57917;51.380;-0.176;2022-12-07T17:06:28;101544.97;;;3.57
29701;BMP280;57917;51.380;-0.176;2022-12-07T17:12:18;101546.41;;;3.46
29701;BMP280;57917;51.380;-0.176;2022-12-07T17:18:05;101533.88;;;3.81
29701;BMP280;57917;51.380;-0.176;2022-12-07T17:23:51;101513.75;;;3.88
29701;BMP280;57917;51.380;-0.176;2022-12-07T17:29:38;101516.59;;;3.60
29701;BMP280;57917;51.380;-0.176;2022-12-07T17:35:27;101516.78;;;3.65
29701;BMP280;57917;51.380;-0.176;2022-12-07T17:41:17;101506.50;;;3.90
29701;BMP280;57917;51.380;-0.176;2022-12-07T17:47:24;101503.88;;;3.90
29701;BMP280;57917;51.380;-0.176;2022-12-07T17:53:11;101505.91;;;3.75
29701;BMP280;57917;51.380;-0.176;2022-12-07T17:58:58;101487.09;;;3.97
29701;BMP280;57917;51.380;-0.176;2022-12-07T18:04:46;101496.16;;;4.01
29701;BMP280;57917;51.380;-0.176;2022-12-07T18:10:35;101482.03;;;4.09
29701;BMP280;57917;51.380;-0.176;2022-12-07T18:16:24;101485.47;;;4.09
29701;BMP280;57917;51.380;-0.176;2022-12-07T18:22:11;101474.75;;;4.11
29701;BMP280;57917;51.380;-0.176;2022-12-07T18:27:58;101465.69;;;4.07
29701;BMP280;57917;51.380;-0.176;2022-12-07T18:33:46;101472.44;;;3.90
29701;BMP280;57917;51.380;-0.176;2022-12-07T18:39:33;101463.78;;;3.83
29701;BMP280;57917;51.380;-0.176;2022-12-07T18:45:41;101467.81;;;3.72
29701;BMP280;57917;51.380;-0.176;2022-12-07T18:51:33;101461.97;;;3.77
29701;BMP280;57917;51.380;-0.176;2022-12-07T18:57:25;101466.66;;;3.68
29701;BMP280;57917;51.380;-0.176;2022-12-07T19:03:13;101463.19;;;3.81
29701;BMP280;57917;51.380;-0.176;2022-12-07T19:09:00;101460.19;;;3.71
29701;BMP280;57917;51.380;-0.176;2022-12-07T19:14:48;101465.25;;;3.66
29701;BMP280;57917;51.380;-0.176;2022-12-07T19:20:35;101447.13;;;3.58
29701;BMP280;57917;51.380;-0.176;2022-12-07T19:26:22;101446.13;;;3.59
29701;BMP280;57917;51.380;-0.176;2022-12-07T19:32:14;101435.38;;;3.80
29701;BMP280;57917;51.380;-0.176;2022-12-07T19:38:11;101419.38;;;3.30
29701;BMP280;57917;51.380;-0.176;2022-12-07T19:44:21;101433.50;;;3.16
29701;BMP280;57917;51.380;-0.176;2022-12-07T19:50:26;101427.63;;;3.27
29701;BMP280;57917;51.380;-0.176;2022-12-07T19:56:14;101421.44;;;3.02
29701;BMP280;57917;51.380;-0.176;2022-12-07T20:02:04;101403.50;;;2.99
29701;BMP280;57917;51.380;-0.176;2022-12-07T20:07:53;101400.31;;;3.10
29701;BMP280;57917;51.380;-0.176;2022-12-07T20:13:41;101397.09;;;3.08
29701;BMP280;57917;51.380;-0.176;2022-12-07T20:19:31;101387.59;;;2.94
29701;BMP280;57917;51.380;-0.176;2022-12-07T20:25:18;101377.38;;;2.86
29701;BMP280;57917;51.380;-0.176;2022-12-07T20:31:05;101392.25;;;2.79
29701;BMP280;57917;51.380;-0.176;2022-12-07T20:36:56;101384.00;;;2.82
29701;BMP280;57917;51.380;-0.176;2022-12-07T20:42:52;101365.91;;;2.81
29701;BMP280;57917;51.380;-0.176;2022-12-07T20:48:42;101374.91;;;2.65
29701;BMP280;57917;51.380;-0.176;2022-12-07T20:54:29;101370.31;;;2.54
29701;BMP280;57917;51.380;-0.176;2022-12-07T21:00:17;101360.88;;;2.53
29701;BMP280;57917;51.380;-0.176;2022-12-07T21:06:05;101368.91;;;2.51
29701;BMP280;57917;51.380;-0.176;2022-12-07T21:11:59;101355.63;;;2.66
29701;BMP280;57917;51.380;-0.176;2022-12-07T21:18:00;101344.13;;;2.28
29701;BMP280;57917;51.380;-0.176;2022-12-07T21:23:53;101342.31;;;2.28
29701;BMP280;57917;51.380;-0.176;2022-12-07T21:29:51;101343.13;;;2.16
29701;BMP280;57917;51.380;-0.176;2022-12-07T21:35:46;101342.25;;;1.96
29701;BMP280;57917;51.380;-0.176;2022-12-07T21:41:34;101339.03;;;1.94
29701;BMP280;57917;51.380;-0.176;2022-12-07T21:47:32;101339.97;;;1.80
29701;BMP280;57917;51.380;-0.176;2022-12-07T21:53:19;101339.78;;;1.75
29701;BMP280;57917;51.380;-0.176;2022-12-07T21:59:09;101332.03;;;2.07
29701;BMP280;57917;51.380;-0.176;2022-12-07T22:04:57;101318.16;;;2.07
29701;BMP280;57917;51.380;-0.176;2022-12-07T22:10:47;101305.72;;;2.09
29701;BMP280;57917;51.380;-0.176;2022-12-07T22:16:35;101293.47;;;2.09
29701;BMP280;57917;51.380;-0.176;2022-12-07T22:22:23;101306.69;;;1.95
29701;BMP280;57917;51.380;-0.176;2022-12-07T22:28:10;101295.59;;;1.73
29701;BMP280;57917;51.380;-0.176;2022-12-07T22:34:04;101308.16;;;1.56
29701;BMP280;57917;51.380;-0.176;2022-12-07T22:39:51;101304.31;;;1.52
29701;BMP280;57917;51.380;-0.176;2022-12-07T22:45:38;101302.88;;;1.43
29701;BMP280;57917;51.380;-0.176;2022-12-07T22:51:28;101299.63;;;1.35
29701;BMP280;57917;51.380;-0.176;2022-12-07T22:57:15;101297.06;;;1.41
29701;BMP280;57917;51.380;-0.176;2022-12-07T23:03:02;101297.63;;;1.30
29701;BMP280;57917;51.380;-0.176;2022-12-07T23:08:49;101283.78;;;1.36
29701;BMP280;57917;51.380;-0.176;2022-12-07T23:14:36;101270.41;;;1.12
29701;BMP280;57917;51.380;-0.176;2022-12-07T23:20:24;101266.38;;;1.43
29701;BMP280;57917;51.380;-0.176;2022-12-07T23:26:11;101267.47;;;1.21
29701;BMP280;57917;51.380;-0.176;2022-12-07T23:31:58;101265.13;;;0.99
29701;BMP280;57917;51.380;-0.176;2022-12-07T23:37:45;101264.69;;;0.95
29701;BMP280;57917;51.380;-0.176;2022-12-07T23:43:33;101260.59;;;1.14
29701;BMP280;57917;51.380;-0.176;2022-12-07T23:49:20;101246.06;;;1.32
29701;BMP280;57917;51.380;-0.176;2022-12-07T23:55:07;101226.91;;;1.12
